Time;durP1;ratioP1;P1;durP2;ratioP2;P2;SDS_P1;SDS_P2;PMS_P1;PMS_P2;Temp;Humidity;BMP_temperature;BMP_pressure;BME280_temperature;BME280_humidity;BME280_pressure;Samples;Min_cycle;Max_cycle;Signal;HPM_P1;HPM_P2
2021/12/19 00:00:32;;;;;;;49.03;18.73;;;1.50;76.90;;;;;;5068461;28;45840;-68
2021/12/19 00:03:52;;;;;;;43.67;16.10;;;1.50;76.70;;;;;;5061150;28;46456;-67
2021/12/19 00:10:59;;;;;;;45.40;17.27;;;1.60;76.30;;;;;;5070490;28;46269;-67
2021/12/19 00:13:27;;;;;;;39.43;15.63;;;1.60;76.40;;;;;;5064144;28;46288;-67
2021/12/19 00:15:54;;;;;;;46.85;14.25;;;1.50;76.70;;;;;;5054823;28;48820;-68
2021/12/19 00:18:20;;;;;;;38.95;13.73;;;1.50;76.80;;;;;;5053369;28;46419;-68
2021/12/19 00:20:46;;;;;;;35.67;14.00;;;1.50;76.80;;;;;;5059338;28;46402;-70
2021/12/19 00:23:12;;;;;;;43.20;15.63;;;1.50;76.80;;;;;;5062922;28;45986;-69
2021/12/19 00:25:41;;;;;;;39.88;15.70;;;1.40;77.00;;;;;;5057980;28;48078;-68
2021/12/19 00:28:06;;;;;;;44.80;15.05;;;1.30;77.00;;;;;;5061988;28;45915;-68
2021/12/19 00:30:32;;;;;;;44.87;16.80;;;1.30;77.20;;;;;;5063639;28;46554;-67
2021/12/19 00:33:01;;;;;;;45.83;15.63;;;1.40;76.90;;;;;;5059721;28;46666;-66
2021/12/19 00:35:27;;;;;;;60.45;16.67;;;1.50;76.60;;;;;;5055458;28;47873;-69
2021/12/19 00:37:53;;;;;;;48.10;16.63;;;1.50;76.40;;;;;;5063148;28;46479;-69
2021/12/19 00:40:20;;;;;;;47.47;18.02;;;1.50;76.40;;;;;;5058668;28;46367;-68
2021/12/19 00:43:01;;;;;;;42.65;17.05;;;1.50;76.50;;;;;;5054740;28;46429;-68
2021/12/19 00:45:30;;;;;;;43.15;16.83;;;1.60;76.50;;;;;;5056214;28;48070;-69
2021/12/19 00:48:01;;;;;;;51.90;18.10;;;1.60;76.40;;;;;;5072466;28;46530;-67
2021/12/19 00:50:28;;;;;;;43.72;15.80;;;1.70;76.10;;;;;;5062551;28;46390;-67
2021/12/19 00:52:55;;;;;;;42.47;16.92;;;1.80;76.10;;;;;;5053752;28;46474;-68
2021/12/19 00:55:24;;;;;;;35.55;15.35;;;1.80;76.00;;;;;;5051454;28;47915;-68
2021/12/19 00:57:51;;;;;;;48.60;16.73;;;1.80;75.90;;;;;;5062670;28;46164;-68
2021/12/19 01:00:21;;;;;;;44.45;15.35;;;1.80;75.90;;;;;;5054426;28;46459;-67
2021/12/19 01:02:51;;;;;;;38.85;14.18;;;1.80;76.00;;;;;;5055497;28;46401;-69
2021/12/19 01:05:19;;;;;;;41.45;15.25;;;1.70;76.10;;;;;;5061194;28;47848;-68
2021/12/19 01:07:46;;;;;;;42.38;14.45;;;1.50;77.70;;;;;;5073372;28;46520;-69
2021/12/19 01:10:12;;;;;;;33.25;14.73;;;1.40;76.80;;;;;;5055635;28;46121;-68
2021/12/19 01:12:38;;;;;;;38.65;15.35;;;1.30;77.40;;;;;;5070972;28;46479;-67
2021/12/19 01:15:11;;;;;;;35.00;13.80;;;1.20;77.50;;;;;;5060201;28;47946;-68
2021/12/19 01:17:37;;;;;;;42.63;12.73;;;1.20;77.40;;;;;;5055293;28;45879;-68
2021/12/19 01:20:10;;;;;;;36.15;14.77;;;1.20;77.40;;;;;;5056810;28;46454;-68
2021/12/19 01:22:36;;;;;;;36.63;13.82;;;1.20;77.50;;;;;;5061866;28;46459;-69
2021/12/19 01:25:02;;;;;;;36.20;13.67;;;1.20;77.30;;;;;;5054433;28;48947;-68
2021/12/19 01:27:27;;;;;;;33.22;13.82;;;1.20;77.40;;;;;;5059368;28;46698;-67
2021/12/19 01:29:53;;;;;;;40.27;14.67;;;1.10;77.50;;;;;;5054429;28;46344;-69
2021/12/19 01:32:19;;;;;;;32.00;14.80;;;1.20;77.20;;;;;;5055552;28;46425;-69
2021/12/19 01:34:44;;;;;;;33.00;13.53;;;1.20;77.40;;;;;;5058655;28;47914;-68
2021/12/19 01:37:10;;;;;;;37.23;12.60;;;1.20;77.30;;;;;;5054974;28;46480;-68
2021/12/19 01:39:36;;;;;;;34.70;14.17;;;1.20;76.90;;;;;;5063300;28;46332;-68
2021/12/19 01:42:02;;;;;;;30.97;13.30;;;1.30;76.90;;;;;;5051398;28;46427;-69
2021/12/19 01:44:28;;;;;;;34.15;12.93;;;1.30;77.00;;;;;;5051223;28;47910;-68
2021/12/19 01:46:54;;;;;;;36.83;14.33;;;1.20;76.90;;;;;;5052953;28;46623;-68
2021/12/19 01:49:22;;;;;;;28.05;13.15;;;1.10;77.10;;;;;;5055436;28;45788;-69
2021/12/19 01:51:48;;;;;;;38.95;13.50;;;1.10;77.10;;;;;;5056294;28;46564;-68
2021/12/19 01:54:14;;;;;;;33.93;13.70;;;1.10;77.10;;;;;;5073493;28;46533;-68
2021/12/19 01:56:43;;;;;;;33.72;14.38;;;1.20;77.10;;;;;;5057118;28;46778;-68
2021/12/19 01:59:10;;;;;;;37.38;14.43;;;1.30;76.90;;;;;;5072770;28;45757;-69
2021/12/19 02:01:44;;;;;;;32.10;11.95;;;1.30;76.70;;;;;;5057686;28;46398;-67
2021/12/19 02:04:15;;;;;;;34.25;13.35;;;1.40;76.50;;;;;;5054575;28;48046;-68
2021/12/19 02:06:41;;;;;;;36.78;14.75;;;1.30;76.60;;;;;;5066494;28;46347;-66
2021/12/19 02:09:08;;;;;;;42.95;15.43;;;1.30;76.70;;;;;;5053760;28;46425;-67
2021/12/19 02:11:39;;;;;;;32.20;13.35;;;1.30;76.80;;;;;;5063926;28;46376;-69
2021/12/19 02:14:07;;;;;;;35.80;13.43;;;1.20;76.90;;;;;;5062361;28;47301;-68
2021/12/19 02:16:36;;;;;;;34.38;13.93;;;1.20;76.90;;;;;;5053459;28;46372;-69
2021/12/19 02:19:03;;;;;;;31.63;13.52;;;1.30;76.80;;;;;;5052257;28;46579;-69
2021/12/19 02:21:29;;;;;;;38.13;14.48;;;1.30;76.70;;;;;;5057379;28;45922;-67
2021/12/19 02:24:01;;;;;;;32.23;14.23;;;1.30;76.70;;;;;;5073815;27;46507;-68
2021/12/19 02:26:27;;;;;;;39.75;15.10;;;1.30;76.50;;;;;;5073482;28;46352;-68
2021/12/19 02:28:52;;;;;;;41.30;13.90;;;1.40;76.50;;;;;;5077870;28;46411;-69
2021/12/19 02:31:20;;;;;;;40.13;14.60;;;1.40;76.50;;;;;;5077470;28;46421;-68
2021/12/19 02:34:00;;;;;;;37.55;15.15;;;1.40;76.50;;;;;;5062420;28;48939;-67
2021/12/19 02:36:41;;;;;;;33.28;13.25;;;1.40;76.50;;;;;;5062127;28;46781;-70
2021/12/19 02:50:10;;;;;;;36.20;14.75;;;0.80;77.60;;;;;;5065502;28;46280;-69
2021/12/19 02:52:36;;;;;;;39.40;13.60;;;0.80;77.90;;;;;;5061080;28;46359;-66
2021/12/19 02:55:03;;;;;;;40.37;14.10;;;0.90;77.80;;;;;;5061772;28;46321;-68
2021/12/19 02:57:29;;;;;;;33.35;13.02;;;0.90;77.60;;;;;;5053176;28;46769;-69
2021/12/19 02:59:55;;;;;;;33.63;12.90;;;0.80;77.60;;;;;;5056749;28;46356;-68
2021/12/19 03:02:22;;;;;;;37.30;13.30;;;0.90;77.60;;;;;;5060491;28;45823;-68
2021/12/19 03:04:59;;;;;;;35.90;13.43;;;1.00;77.30;;;;;;5052584;28;46557;-69
2021/12/19 03:07:27;;;;;;;35.78;12.60;;;1.00;77.20;;;;;;5071790;28;46429;-66
2021/12/19 03:18:13;;;;;;;34.25;12.95;;;0.80;77.40;;;;;;5071300;28;46363;-68
2021/12/19 03:20:41;;;;;;;33.45;12.68;;;0.70;77.50;;;;;;5054256;28;46539;-67
2021/12/19 03:23:10;;;;;;;34.38;13.90;;;0.80;77.40;;;;;;5052532;28;46338;-69
2021/12/19 03:25:36;;;;;;;34.15;12.95;;;0.90;77.10;;;;;;5061687;28;48910;-69
2021/12/19 03:28:04;;;;;;;30.83;11.23;;;1.00;76.90;;;;;;5054349;28;46483;-68
2021/12/19 03:30:31;;;;;;;32.17;12.52;;;0.90;76.70;;;;;;5068689;28;46555;-68
2021/12/19 03:32:57;;;;;;;34.08;12.20;;;0.90;77.00;;;;;;5071042;28;46510;-68
2021/12/19 03:35:27;;;;;;;28.90;13.20;;;1.00;76.70;;;;;;5055500;28;47231;-68
2021/12/19 03:37:53;;;;;;;32.80;12.95;;;1.00;76.60;;;;;;5051785;28;46397;-66
2021/12/19 03:40:24;;;;;;;26.57;12.47;;;1.00;76.60;;;;;;5053535;28;46410;-66
2021/12/19 03:42:54;;;;;;;34.78;13.68;;;1.10;76.60;;;;;;5051277;28;46195;-68
2021/12/19 03:45:23;;;;;;;33.80;13.90;;;1.00;76.60;;;;;;5069985;27;47877;-68
2021/12/19 03:47:49;;;;;;;33.22;13.38;;;1.10;76.70;;;;;;5056251;28;46592;-69
2021/12/19 03:50:22;;;;;;;37.33;14.70;;;1.20;76.60;;;;;;5063102;28;46437;-69
2021/12/19 03:52:50;;;;;;;31.00;14.30;;;1.20;76.60;;;;;;5058388;28;46578;-67
2021/12/19 03:55:21;;;;;;;31.48;12.27;;;1.20;76.40;;;;;;5053176;28;47750;-68
2021/12/19 03:57:47;;;;;;;36.92;14.32;;;1.20;76.40;;;;;;5058702;28;46489;-68
2021/12/19 04:00:16;;;;;;;33.38;14.32;;;1.10;76.50;;;;;;5057385;28;46396;-68
2021/12/19 04:02:41;;;;;;;34.58;12.35;;;1.10;76.50;;;;;;5063248;28;46451;-68
2021/12/19 04:05:08;;;;;;;35.43;12.93;;;1.10;76.50;;;;;;5058120;28;47999;-68
2021/12/19 04:07:34;;;;;;;33.65;13.48;;;1.10;76.70;;;;;;5060673;28;46416;-68
2021/12/19 04:10:03;;;;;;;36.58;13.25;;;0.90;77.00;;;;;;5060896;28;46212;-68
2021/12/19 04:12:30;;;;;;;36.42;12.80;;;0.90;77.20;;;;;;5054603;28;45931;-68
2021/12/19 04:14:55;;;;;;;29.63;12.27;;;0.90;77.40;;;;;;5063804;28;48690;-66
2021/12/19 04:17:21;;;;;;;29.53;11.73;;;0.70;77.60;;;;;;5064684;28;46408;-67
2021/12/19 04:19:50;;;;;;;30.95;13.63;;;0.70;77.80;;;;;;5056929;28;46358;-69
2021/12/19 04:22:16;;;;;;;33.28;13.70;;;0.70;77.80;;;;;;5065085;28;46391;-67
2021/12/19 04:24:41;;;;;;;34.57;12.53;;;0.70;77.60;;;;;;5057559;28;46567;-68
2021/12/19 04:27:07;;;;;;;35.13;12.63;;;0.60;77.80;;;;;;5057358;28;46527;-67
2021/12/19 04:29:33;;;;;;;33.17;12.57;;;0.60;78.00;;;;;;5056334;28;45883;-67
2021/12/19 04:32:08;;;;;;;31.07;12.60;;;0.70;77.80;;;;;;5061777;28;46341;-69
2021/12/19 04:34:34;;;;;;;31.60;13.32;;;0.80;77.50;;;;;;5059045;28;47903;-68
2021/12/19 04:37:08;;;;;;;29.57;12.67;;;0.80;77.00;;;;;;5057934;28;46429;-68
2021/12/19 04:39:51;;;;;;;37.05;14.20;;;0.90;76.90;;;;;;5073085;28;45819;-68
2021/12/19 04:56:03;;;;;;;29.63;12.07;;;0.80;77.10;;;;;;5065059;28;46914;-67
2021/12/19 05:16:28;;;;;;;37.85;13.63;;;0.80;77.30;;;;;;5067352;28;46900;-69
2021/12/19 05:19:02;;;;;;;34.10;14.67;;;0.90;77.10;;;;;;5056169;28;46404;-66
2021/12/19 05:21:29;;;;;;;37.45;14.85;;;1.00;76.80;;;;;;5063988;28;46294;-69
2021/12/19 05:26:23;;;;;;;31.02;14.55;;;1.10;76.60;;;;;;5068113;28;46477;-69
2021/12/19 05:28:52;;;;;;;35.28;13.65;;;1.10;76.70;;;;;;5052910;28;46428;-67
2021/12/19 05:31:20;;;;;;;34.47;14.25;;;1.10;76.40;;;;;;5054493;28;46229;-69
2021/12/19 05:33:47;;;;;;;35.13;14.60;;;1.10;76.50;;;;;;5052373;28;46619;-69
2021/12/19 05:46:38;;;;;;;37.20;15.57;;;1.20;76.50;;;;;;5070941;28;46357;-69
2021/12/19 05:49:06;;;;;;;36.40;14.90;;;1.10;76.50;;;;;;5054610;28;46275;-69
2021/12/19 05:51:32;;;;;;;33.47;13.90;;;1.10;76.40;;;;;;5055089;28;46456;-68
2021/12/19 05:54:01;;;;;;;34.97;14.45;;;1.10;76.40;;;;;;5055846;28;46476;-68
2021/12/19 05:56:27;;;;;;;32.65;13.70;;;1.10;76.50;;;;;;5062494;28;46356;-67
2021/12/19 05:58:53;;;;;;;35.50;15.00;;;1.20;76.40;;;;;;5063032;28;46380;-69
2021/12/19 06:01:18;;;;;;;36.70;12.60;;;1.20;76.30;;;;;;5058060;28;46379;-67
2021/12/19 06:03:44;;;;;;;33.23;14.00;;;1.20;76.30;;;;;;5062635;28;46282;-67
2021/12/19 06:06:12;;;;;;;29.87;13.90;;;1.10;76.50;;;;;;5072276;28;45987;-67
2021/12/19 06:08:38;;;;;;;26.92;12.13;;;1.10;76.60;;;;;;5056494;28;46443;-69
2021/12/19 06:11:04;;;;;;;37.30;14.20;;;1.00;76.70;;;;;;5056887;28;46340;-69
2021/12/19 06:13:29;;;;;;;33.10;13.50;;;1.10;76.90;;;;;;5055442;28;46268;-69
2021/12/19 06:15:57;;;;;;;33.38;13.90;;;1.00;76.80;;;;;;5062519;28;46357;-68
2021/12/19 06:18:23;;;;;;;34.63;14.93;;;0.90;76.90;;;;;;5057194;28;46358;-69
2021/12/19 06:20:49;;;;;;;31.13;13.48;;;0.90;77.20;;;;;;5056684;28;46339;-69
2021/12/19 06:23:15;;;;;;;33.63;13.90;;;0.70;77.40;;;;;;5070780;28;46291;-69
2021/12/19 06:25:45;;;;;;;29.02;13.02;;;0.60;77.80;;;;;;5056110;28;47228;-69
2021/12/19 06:28:16;;;;;;;37.25;14.70;;;0.60;78.30;;;;;;5059103;28;46331;-67
2021/12/19 06:30:42;;;;;;;37.78;15.88;;;0.70;78.00;;;;;;5063328;28;46427;-68
2021/12/19 06:33:08;;;;;;;31.42;14.15;;;0.90;77.60;;;;;;5057537;28;46445;-68
2021/12/19 06:35:34;;;;;;;40.57;15.47;;;0.90;77.10;;;;;;5070385;28;46144;-68
2021/12/19 06:38:00;;;;;;;37.40;16.58;;;1.00;76.80;;;;;;5051467;28;46440;-69
2021/12/19 06:40:26;;;;;;;41.93;17.67;;;1.10;76.60;;;;;;5055143;28;45832;-69
2021/12/19 06:42:52;;;;;;;40.63;15.65;;;1.10;76.60;;;;;;5052946;27;46451;-69
2021/12/19 06:45:20;;;;;;;34.63;17.30;;;1.00;76.70;;;;;;5049588;28;47846;-68
2021/12/19 06:47:46;;;;;;;39.55;16.30;;;1.10;76.80;;;;;;5054478;28;46621;-69
2021/12/19 06:50:13;;;;;;;39.42;15.80;;;1.00;76.60;;;;;;5059388;27;45816;-69
2021/12/19 06:52:40;;;;;;;34.33;15.65;;;1.10;76.70;;;;;;5057592;28;46405;-68
2021/12/19 06:55:07;;;;;;;42.53;16.95;;;1.10;76.70;;;;;;5058327;27;46402;-67
2021/12/19 06:57:33;;;;;;;54.83;22.38;;;1.00;76.80;;;;;;5050986;28;46217;-69
2021/12/19 06:59:59;;;;;;;115.00;41.77;;;1.00;76.90;;;;;;5062417;28;46315;-68
2021/12/19 07:02:25;;;;;;;49.07;20.90;;;0.90;77.10;;;;;;5056321;28;46567;-69
2021/12/19 07:04:50;;;;;;;45.83;18.50;;;0.90;77.00;;;;;;5052506;28;48634;-69
2021/12/19 07:07:16;;;;;;;43.20;16.30;;;1.00;76.90;;;;;;5052766;28;45728;-67
2021/12/19 07:09:42;;;;;;;35.87;14.80;;;1.10;76.60;;;;;;5068723;27;46362;-67
2021/12/19 07:12:08;;;;;;;36.57;16.50;;;1.10;76.70;;;;;;5057665;27;46591;-68
2021/12/19 07:14:35;;;;;;;39.88;16.88;;;1.10;76.50;;;;;;5052529;28;47848;-69
2021/12/19 07:17:01;;;;;;;34.28;15.95;;;1.10;76.50;;;;;;5054214;27;46709;-68
2021/12/19 07:19:26;;;;;;;31.33;15.15;;;1.10;76.40;;;;;;5053670;28;46302;-69
2021/12/19 07:21:52;;;;;;;37.20;16.13;;;1.10;76.40;;;;;;5059054;27;46912;-68
2021/12/19 07:24:18;;;;;;;30.80;14.27;;;1.10;76.40;;;;;;5058646;27;46388;-68
2021/12/19 07:26:44;;;;;;;37.67;17.90;;;1.10;76.40;;;;;;5059401;28;46466;-67
2021/12/19 07:29:10;;;;;;;35.60;16.90;;;1.20;76.40;;;;;;5074148;27;46514;-69
2021/12/19 07:31:37;;;;;;;34.85;16.13;;;1.30;76.10;;;;;;5058227;28;46454;-68
2021/12/19 07:34:05;;;;;;;30.92;15.25;;;1.30;76.10;;;;;;5063895;27;48721;-69
2021/12/19 07:36:39;;;;;;;32.08;15.95;;;1.20;76.30;;;;;;5051979;28;45984;-68
2021/12/19 07:39:10;;;;;;;36.55;16.38;;;1.20;76.30;;;;;;5059970;27;46476;-68
2021/12/19 07:41:36;;;;;;;36.35;16.08;;;1.20;76.40;;;;;;5062675;28;46390;-68
2021/12/19 07:44:01;;;;;;;34.23;15.80;;;1.30;76.20;;;;;;5056804;27;47992;-67
2021/12/19 07:46:27;;;;;;;31.83;15.73;;;1.30;76.20;;;;;;5059633;28;45826;-68
2021/12/19 07:48:53;;;;;;;31.77;14.53;;;1.30;76.10;;;;;;5057832;27;46393;-66
2021/12/19 07:51:21;;;;;;;31.60;14.77;;;1.30;76.10;;;;;;5075532;27;46363;-69
2021/12/19 07:53:47;;;;;;;35.05;14.90;;;1.40;76.10;;;;;;5056600;28;46504;-69
2021/12/19 07:56:13;;;;;;;32.70;15.00;;;1.40;76.00;;;;;;5063455;27;46535;-69
2021/12/19 07:58:38;;;;;;;28.97;14.33;;;1.50;75.80;;;;;;5058124;28;45793;-66
2021/12/19 08:01:07;;;;;;;37.83;10.83;;;1.40;75.70;;;;;;5059062;27;46461;-68
2021/12/19 08:03:32;;;;;;;53.63;12.77;;;1.30;75.90;;;;;;5061094;28;47713;-69
2021/12/19 08:05:58;;;;;;;28.43;13.83;;;1.20;76.40;;;;;;5058374;27;46239;-68
2021/12/19 08:08:27;;;;;;;28.83;14.37;;;1.10;76.40;;;;;;5054060;28;46357;-69
2021/12/19 08:13:39;;;;;;;30.40;12.48;;;1.30;76.30;;;;;;5078018;27;46407;-68
2021/12/19 08:16:05;;;;;;;33.28;13.75;;;1.30;76.10;;;;;;5059805;27;46413;-67
2021/12/19 08:18:30;;;;;;;26.70;12.90;;;1.40;76.10;;;;;;5075663;27;46325;-69
2021/12/19 08:20:56;;;;;;;38.13;13.33;;;1.40;76.20;;;;;;5059984;28;46446;-69
2021/12/19 08:23:22;;;;;;;29.40;13.83;;;1.40;75.90;;;;;;5054241;28;48952;-69
2021/12/19 08:25:48;;;;;;;26.67;12.80;;;1.50;75.90;;;;;;5055459;28;46569;-69
2021/12/19 08:28:14;;;;;;;30.10;13.50;;;1.60;75.80;;;;;;5058098;28;46027;-69
2021/12/19 08:30:41;;;;;;;30.83;16.10;;;1.60;75.80;;;;;;5057700;27;45897;-68
2021/12/19 08:33:07;;;;;;;37.88;15.13;;;1.60;75.90;;;;;;5053201;28;48093;-69
2021/12/19 08:35:33;;;;;;;27.37;13.10;;;1.60;76.00;;;;;;5056645;28;45962;-68
2021/12/19 08:37:59;;;;;;;37.30;15.57;;;1.70;75.80;;;;;;5061949;28;46271;-67
2021/12/19 08:40:27;;;;;;;35.70;15.30;;;1.70;75.70;;;;;;5054411;28;46354;-67
2021/12/19 08:42:53;;;;;;;32.90;16.58;;;1.70;75.60;;;;;;5048666;28;47757;-67
2021/12/19 08:45:20;;;;;;;27.80;14.23;;;1.70;75.70;;;;;;5051583;28;46425;-68
2021/12/19 08:47:46;;;;;;;28.35;14.05;;;1.70;75.50;;;;;;5054781;28;46477;-67
2021/12/19 08:50:12;;;;;;;34.27;14.93;;;1.80;75.60;;;;;;5058989;28;46587;-67
2021/12/19 08:52:42;;;;;;;29.15;13.80;;;1.80;75.70;;;;;;5056190;28;47251;-68
2021/12/19 08:55:12;;;;;;;36.38;12.15;;;1.80;75.40;;;;;;5056634;28;46479;-67
2021/12/19 08:57:38;;;;;;;64.00;12.13;;;1.70;75.50;;;;;;5057308;28;46240;-67
2021/12/19 09:00:14;;;;;;;39.65;12.60;;;1.40;76.10;;;;;;5058456;27;46434;-67
2021/12/19 09:02:42;;;;;;;27.60;12.07;;;1.20;77.10;;;;;;5080028;27;46139;-67
2021/12/19 09:05:09;;;;;;;29.23;12.23;;;1.10;77.50;;;;;;5061045;27;46286;-68
2021/12/19 09:07:35;;;;;;;35.22;12.27;;;1.20;77.20;;;;;;5057284;28;46457;-68
2021/12/19 09:10:01;;;;;;;27.60;13.23;;;1.40;76.80;;;;;;5055404;28;46442;-69
2021/12/19 09:12:27;;;;;;;37.75;10.68;;;1.60;76.20;;;;;;5063374;28;46516;-67
2021/12/19 09:14:56;;;;;;;32.67;12.05;;;1.60;75.90;;;;;;5057049;28;46430;-67
2021/12/19 09:17:22;;;;;;;51.03;12.70;;;1.60;76.00;;;;;;5064345;28;46425;-67
2021/12/19 09:19:48;;;;;;;34.43;11.10;;;1.50;76.20;;;;;;5074393;28;46469;-68
2021/12/19 09:22:13;;;;;;;36.50;13.43;;;1.40;76.50;;;;;;5062077;28;46544;-68
2021/12/19 09:24:39;;;;;;;44.27;12.07;;;1.50;77.60;;;;;;5061610;28;46485;-69
2021/12/19 09:27:08;;;;;;;25.60;10.70;;;1.50;76.50;;;;;;5059647;28;46460;-68
2021/12/19 09:29:40;;;;;;;29.65;12.23;;;1.50;76.40;;;;;;5056811;28;46391;-68
2021/12/19 09:32:06;;;;;;;23.90;12.30;;;1.60;76.50;;;;;;5057786;28;46358;-67
2021/12/19 09:34:33;;;;;;;28.30;12.70;;;1.60;76.30;;;;;;5057032;28;46493;-68
2021/12/19 09:37:00;;;;;;;34.88;11.00;;;1.80;76.00;;;;;;5059560;27;46459;-67
2021/12/19 09:39:26;;;;;;;53.08;11.10;;;1.80;75.80;;;;;;5056803;28;46512;-67
2021/12/19 09:41:55;;;;;;;23.15;9.02;;;1.60;76.40;;;;;;5070311;28;46010;-69
2021/12/19 09:44:23;;;;;;;33.83;11.13;;;1.50;77.40;;;;;;5058759;28;45960;-68
2021/12/19 09:46:50;;;;;;;32.83;12.20;;;1.40;78.20;;;;;;5058967;27;46439;-67
2021/12/19 09:49:18;;;;;;;27.33;11.70;;;1.40;78.30;;;;;;5053529;28;46387;-68
2021/12/19 09:51:45;;;;;;;25.42;11.85;;;1.50;78.00;;;;;;5055769;28;47899;-68
2021/12/19 09:54:11;;;;;;;26.00;10.52;;;1.60;77.70;;;;;;5054215;27;46703;-68
2021/12/19 09:56:39;;;;;;;21.70;10.18;;;1.60;77.70;;;;;;5063816;28;45791;-68
2021/12/19 09:59:23;;;;;;;28.17;10.68;;;1.50;77.70;;;;;;5058722;28;46406;-68
2021/12/19 10:01:51;;;;;;;26.00;11.10;;;1.50;77.90;;;;;;5072162;27;48127;-67
2021/12/19 10:04:30;;;;;;;30.52;13.05;;;1.50;77.80;;;;;;5048421;28;46417;-66
2021/12/19 10:07:08;;;;;;;22.98;11.98;;;1.50;77.90;;;;;;5074937;27;46471;-69
2021/12/19 10:09:36;;;;;;;23.95;10.07;;;1.70;77.70;;;;;;5064127;28;46310;-69
2021/12/19 10:12:24;;;;;;;24.88;11.93;;;1.80;77.20;;;;;;5055875;27;46422;-68
2021/12/19 10:14:54;;;;;;;38.00;14.65;;;1.80;77.40;;;;;;5058893;28;46441;-66
2021/12/19 10:17:20;;;;;;;24.85;10.93;;;1.80;77.50;;;;;;5060966;28;46386;-68
2021/12/19 10:19:53;;;;;;;25.45;12.07;;;1.80;77.60;;;;;;5054614;28;46673;-67
2021/12/19 10:22:26;;;;;;;24.00;11.20;;;1.90;77.80;;;;;;5072099;28;46359;-68
2021/12/19 10:24:53;;;;;;;22.00;10.82;;;1.80;77.80;;;;;;5050641;27;46428;-68
2021/12/19 10:27:35;;;;;;;25.48;12.48;;;1.90;77.90;;;;;;5062197;28;46491;-68
2021/12/19 10:30:02;;;;;;;30.05;10.68;;;2.10;77.50;;;;;;5063527;28;46262;-68
2021/12/19 10:32:38;;;;;;;34.45;11.55;;;2.20;77.00;;;;;;5053539;28;46437;-68
2021/12/19 10:35:19;;;;;;;63.88;11.30;;;2.30;76.90;;;;;;5050594;28;46394;-68
2021/12/19 10:37:50;;;;;;;20.10;10.07;;;2.20;76.80;;;;;;5058046;28;45900;-69
2021/12/19 10:40:16;;;;;;;25.98;10.00;;;2.10;77.30;;;;;;5060452;28;46352;-69
2021/12/19 10:42:55;;;;;;;23.43;11.63;;;2.10;77.60;;;;;;5055116;28;48023;-69
2021/12/19 10:45:30;;;;;;;22.67;10.73;;;2.30;77.20;;;;;;5071627;28;46055;-69
2021/12/19 10:48:28;;;;;;;24.77;10.77;;;2.40;77.10;;;;;;5048910;27;46528;-66
2021/12/19 10:51:07;;;;;;;27.10;11.15;;;2.50;76.90;;;;;;5018040;27;46029;-67
2021/12/19 10:53:37;;;;;;;31.25;11.45;;;2.70;76.60;;;;;;5061541;28;47834;-68
2021/12/19 10:56:08;;;;;;;28.00;12.90;;;2.70;76.30;;;;;;5059633;28;45782;-68
2021/12/19 10:58:57;;;;;;;32.35;12.25;;;2.80;75.80;;;;;;5061701;28;46314;-68
2021/12/19 11:01:25;;;;;;;30.38;10.20;;;2.90;76.00;;;;;;5052884;28;46420;-67
2021/12/19 11:03:54;;;;;;;23.08;10.65;;;2.60;76.40;;;;;;5050915;28;46362;-67
2021/12/19 11:06:38;;;;;;;25.27;10.25;;;2.50;77.00;;;;;;5054796;28;46566;-66
2021/12/19 11:09:06;;;;;;;21.17;10.10;;;2.60;76.80;;;;;;5055067;28;46496;-67
2021/12/19 11:11:52;;;;;;;22.92;10.95;;;2.60;76.80;;;;;;5051650;28;46550;-68
2021/12/19 11:14:23;;;;;;;24.15;11.73;;;2.40;77.10;;;;;;5047356;28;46370;-68
2021/12/19 11:16:51;;;;;;;23.08;11.77;;;2.50;77.40;;;;;;5053799;28;46542;-67
2021/12/19 11:19:17;;;;;;;24.33;11.30;;;2.70;76.90;;;;;;5056875;27;46319;-69
2021/12/19 11:21:45;;;;;;;29.60;12.90;;;2.80;76.50;;;;;;5049287;28;46481;-68
2021/12/19 11:24:17;;;;;;;27.23;13.20;;;3.00;76.00;;;;;;5052621;28;47884;-69
2021/12/19 11:26:48;;;;;;;23.98;10.57;;;3.10;75.70;;;;;;5055190;28;46436;-68
2021/12/19 11:29:15;;;;;;;24.35;10.95;;;3.10;75.70;;;;;;5054326;28;46469;-68
2021/12/19 11:31:46;;;;;;;30.08;10.75;;;2.80;75.90;;;;;;5058811;28;46445;-68
2021/12/19 11:34:19;;;;;;;25.17;11.55;;;2.70;76.70;;;;;;5056045;28;48024;-67
2021/12/19 11:37:12;;;;;;;27.25;11.02;;;2.60;77.10;;;;;;5053529;28;45827;-69
2021/12/19 11:39:42;;;;;;;24.65;11.75;;;2.50;77.40;;;;;;5066729;27;46212;-67
2021/12/19 11:42:11;;;;;;;21.05;10.98;;;2.40;77.70;;;;;;5047167;28;46351;-68
2021/12/19 11:47:46;;;;;;;25.52;12.75;;;2.50;77.70;;;;;;5029572;27;45902;-66
2021/12/19 11:50:27;;;;;;;28.00;13.27;;;2.80;77.10;;;;;;5061627;28;46512;-69
2021/12/19 11:53:08;;;;;;;24.75;13.05;;;3.00;76.40;;;;;;5053348;28;46640;-69
2021/12/19 11:55:38;;;;;;;30.40;14.27;;;3.10;76.10;;;;;;5060292;28;46450;-66
2021/12/19 11:58:07;;;;;;;27.20;13.30;;;3.20;75.80;;;;;;5060729;28;46415;-68
2021/12/19 12:00:43;;;;;;;25.80;14.02;;;3.20;75.70;;;;;;5048729;28;46442;-68
2021/12/19 12:03:11;;;;;;;28.42;13.75;;;3.30;75.80;;;;;;5050367;28;46372;-69
2021/12/19 12:05:38;;;;;;;31.08;15.32;;;3.40;75.50;;;;;;5053725;28;47561;-67
2021/12/19 12:08:04;;;;;;;31.10;14.43;;;3.50;75.40;;;;;;5065401;28;46716;-68
2021/12/19 12:10:49;;;;;;;27.90;14.30;;;3.60;75.30;;;;;;5059147;28;46326;-68
2021/12/19 12:13:30;;;;;;;31.30;14.93;;;3.70;75.20;;;;;;5054101;28;46319;-67
2021/12/19 12:16:13;;;;;;;26.50;13.02;;;3.80;75.00;;;;;;5066790;27;48012;-68
2021/12/19 12:18:42;;;;;;;22.60;12.90;;;3.60;75.50;;;;;;5075728;28;46421;-67
2021/12/19 12:21:25;;;;;;;26.20;12.77;;;3.40;75.80;;;;;;5070562;28;46386;-67
2021/12/19 12:24:02;;;;;;;27.02;12.40;;;3.40;75.80;;;;;;5057556;28;45942;-68
2021/12/19 12:26:43;;;;;;;25.95;11.57;;;3.50;75.70;;;;;;5071585;28;47128;-68
2021/12/19 12:29:12;;;;;;;26.45;12.82;;;3.40;75.70;;;;;;5072247;28;46435;-67
2021/12/19 12:31:42;;;;;;;22.35;10.38;;;3.10;76.30;;;;;;5054842;28;46365;-68
2021/12/19 12:34:09;;;;;;;22.35;12.05;;;3.10;76.50;;;;;;5057245;28;45857;-68
2021/12/19 12:36:35;;;;;;;23.10;10.77;;;2.90;76.90;;;;;;5070311;27;47301;-68
2021/12/19 12:39:06;;;;;;;24.17;12.17;;;3.10;77.00;;;;;;5065556;28;46426;-67
2021/12/19 12:44:07;;;;;;;18.13;9.88;;;3.00;77.10;;;;;;5072599;27;46539;-67
2021/12/19 12:46:35;;;;;;;21.88;12.40;;;3.00;77.00;;;;;;5056258;28;47513;-68
2021/12/19 12:49:06;;;;;;;25.90;12.73;;;2.90;77.60;;;;;;5065657;28;46464;-66
2021/12/19 12:51:35;;;;;;;21.50;10.82;;;2.80;77.90;;;;;;5070948;28;45817;-66
2021/12/19 12:54:08;;;;;;;25.08;11.45;;;2.90;78.20;;;;;;5055381;28;46007;-67
2021/12/19 12:56:43;;;;;;;23.27;11.00;;;3.00;78.00;;;;;;5057236;28;47910;-68
2021/12/19 12:59:09;;;;;;;23.58;11.73;;;3.10;77.90;;;;;;5064969;28;46428;-68
2021/12/19 13:01:46;;;;;;;19.80;11.73;;;3.10;77.90;;;;;;5059324;28;46553;-68
2021/12/19 13:04:15;;;;;;;20.42;11.38;;;3.20;77.90;;;;;;5062077;28;46484;-68
2021/12/19 13:06:41;;;;;;;22.65;11.73;;;3.20;77.80;;;;;;5057466;28;46376;-68
2021/12/19 13:09:12;;;;;;;22.67;12.40;;;3.30;77.90;;;;;;5059374;27;46678;-68
2021/12/19 13:11:39;;;;;;;24.23;12.68;;;3.40;77.80;;;;;;5054420;28;46442;-67
2021/12/19 13:14:17;;;;;;;27.77;13.20;;;3.50;77.80;;;;;;5071789;27;46524;-67
2021/12/19 13:16:56;;;;;;;22.70;12.00;;;3.50;77.80;;;;;;5063742;27;46188;-67
2021/12/19 13:19:44;;;;;;;27.38;13.30;;;3.40;77.90;;;;;;5064328;28;45930;-67
2021/12/19 13:22:11;;;;;;;25.35;13.20;;;3.20;78.20;;;;;;5052698;28;46392;-67
2021/12/19 13:24:39;;;;;;;26.75;12.52;;;3.00;78.70;;;;;;5054134;28;46509;-67
2021/12/19 13:27:19;;;;;;;26.77;13.48;;;2.90;79.00;;;;;;5052323;28;48285;-65
2021/12/19 13:30:12;;;;;;;26.55;12.70;;;2.90;79.20;;;;;;5064410;28;46382;-67
2021/12/19 13:32:52;;;;;;;24.10;12.38;;;2.80;79.20;;;;;;5061970;28;46333;-68
2021/12/19 13:35:33;;;;;;;29.90;14.00;;;2.70;79.40;;;;;;5055162;27;46508;-67
2021/12/19 13:38:13;;;;;;;28.90;13.90;;;2.60;79.70;;;;;;5059727;27;46550;-67
2021/12/19 13:40:58;;;;;;;30.08;13.68;;;2.60;79.70;;;;;;5060698;28;46448;-65
2021/12/19 13:43:43;;;;;;;29.38;13.70;;;2.50;80.00;;;;;;5073302;27;46158;-67
2021/12/19 13:46:10;;;;;;;32.60;15.23;;;2.50;80.10;;;;;;5057199;28;46511;-68
2021/12/19 13:48:42;;;;;;;26.42;14.52;;;2.50;80.20;;;;;;5053707;28;47805;-67
2021/12/19 13:51:15;;;;;;;28.00;14.88;;;2.50;80.40;;;;;;5062019;28;46335;-68
2021/12/19 13:53:43;;;;;;;31.30;15.02;;;2.50;80.30;;;;;;5062134;28;46452;-68
2021/12/19 13:56:14;;;;;;;31.85;16.15;;;2.50;80.30;;;;;;5054937;28;46592;-67
2021/12/19 13:58:42;;;;;;;26.65;13.15;;;2.60;80.10;;;;;;5062811;28;47863;-65
2021/12/19 14:01:17;;;;;;;34.22;14.85;;;2.60;80.10;;;;;;5062955;28;46425;-66
2021/12/19 14:03:47;;;;;;;27.50;13.90;;;2.60;80.30;;;;;;5056812;28;45838;-68